Time;durP1;ratioP1;P1;durP2;ratioP2;P2;SDS_P1;SDS_P2;PMS_P1;PMS_P2;Temp;Humidity;BMP_temperature;BMP_pressure;BME280_temperature;BME280_humidity;BME280_pressure;Samples;Min_cycle;Max_cycle;Signal;HPM_P1;HPM_P2
2023/10/02 00:01:10;;;;;;;13.73;7.10;;;;;;;;;;5011841;28;20446;-68
2023/10/02 00:03:39;;;;;;;17.07;6.67;;;;;;;;;;5001028;28;20955;-68
2023/10/02 00:06:06;;;;;;;17.10;7.87;;;;;;;;;;5011263;28;20490;-68
2023/10/02 00:08:36;;;;;;;10.13;6.83;;;;;;;;;;5011915;28;20476;-69
2023/10/02 00:11:35;;;;;;;11.10;6.20;;;;;;;;;;4998438;28;20914;-68
2023/10/02 00:14:18;;;;;;;9.53;6.50;;;;;;;;;;5011387;28;20435;-68
2023/10/02 00:16:42;;;;;;;21.00;7.50;;;;;;;;;;5012593;28;20544;-70
2023/10/02 00:19:18;;;;;;;22.20;7.33;;;;;;;;;;4996098;28;20439;-69
2023/10/02 00:21:45;;;;;;;14.13;7.13;;;;;;;;;;5014838;28;20447;-70
2023/10/02 00:24:12;;;;;;;9.77;7.00;;;;;;;;;;5014453;28;20476;-67
2023/10/02 00:26:38;;;;;;;11.20;6.80;;;;;;;;;;5011930;28;20451;-70
2023/10/02 00:29:09;;;;;;;8.87;6.67;;;;;;;;;;5009650;28;20582;-69
2023/10/02 00:31:38;;;;;;;13.37;6.80;;;;;;;;;;5012161;28;20491;-68
2023/10/02 00:34:06;;;;;;;10.70;6.83;;;;;;;;;;5011121;28;21038;-69
2023/10/02 00:36:33;;;;;;;11.93;8.30;;;;;;;;;;5013116;28;20561;-68
2023/10/02 00:39:47;;;;;;;9.63;6.47;;;;;;;;;;5013926;28;20482;-69
2023/10/02 00:42:10;;;;;;;13.47;6.87;;;;;;;;;;4998338;28;20432;-68
2023/10/02 00:47:16;;;;;;;10.20;6.40;;;;;;;;;;5013249;28;20475;-69
2023/10/02 00:49:42;;;;;;;9.80;6.17;;;;;;;;;;5010688;28;20487;-68
2023/10/02 00:52:09;;;;;;;8.57;5.97;;;;;;;;;;5011250;28;20518;-68
2023/10/02 00:54:35;;;;;;;11.73;6.20;;;;;;;;;;5011627;28;20433;-68
2023/10/02 00:57:16;;;;;;;7.67;5.40;;;;;;;;;;5013164;28;20432;-68
2023/10/02 00:59:44;;;;;;;9.30;5.57;;;;;;;;;;5011973;28;20447;-70
2023/10/02 01:02:11;;;;;;;8.97;5.20;;;;;;;;;;5013017;28;20454;-67
2023/10/02 01:04:37;;;;;;;11.83;6.27;;;;;;;;;;5010582;28;20516;-68
2023/10/02 01:07:11;;;;;;;14.23;7.37;;;;;;;;;;5010979;28;21402;-69
2023/10/02 01:09:39;;;;;;;13.57;7.33;;;;;;;;;;5012209;28;20489;-68
2023/10/02 01:12:10;;;;;;;11.07;7.13;;;;;;;;;;4993460;28;20453;-69
2023/10/02 01:14:51;;;;;;;11.90;7.27;;;;;;;;;;5012824;28;20483;-67
2023/10/02 01:17:20;;;;;;;8.53;5.77;;;;;;;;;;4997438;28;20436;-67
2023/10/02 01:19:53;;;;;;;7.73;5.90;;;;;;;;;;5010119;28;20443;-68
2023/10/02 01:22:26;;;;;;;11.40;7.27;;;;;;;;;;5014142;28;20490;-69
2023/10/02 01:25:06;;;;;;;12.17;6.97;;;;;;;;;;5012303;28;20483;-67
2023/10/02 01:27:40;;;;;;;10.00;7.10;;;;;;;;;;5010436;28;20436;-70
2023/10/02 01:30:15;;;;;;;11.23;5.40;;;;;;;;;;5011624;28;20545;-67
2023/10/02 01:33:06;;;;;;;10.17;5.87;;;;;;;;;;5008042;28;20513;-69
2023/10/02 01:35:36;;;;;;;7.80;6.13;;;;;;;;;;5011134;28;20447;-69
2023/10/02 01:38:06;;;;;;;8.47;6.13;;;;;;;;;;5011275;28;20423;-67
2023/10/02 01:40:35;;;;;;;16.23;6.10;;;;;;;;;;5011515;28;20546;-68
2023/10/02 01:43:14;;;;;;;13.13;6.77;;;;;;;;;;4997309;28;20424;-70
2023/10/02 01:45:43;;;;;;;13.20;6.47;;;;;;;;;;5011352;28;20889;-70
2023/10/02 01:48:36;;;;;;;11.00;6.93;;;;;;;;;;5012872;28;20578;-67
2023/10/02 01:51:25;;;;;;;7.30;6.07;;;;;;;;;;5009667;28;20436;-70
2023/10/02 01:53:53;;;;;;;8.50;6.03;;;;;;;;;;5009201;28;20498;-69
2023/10/02 01:56:20;;;;;;;11.80;7.07;;;;;;;;;;5008684;28;21040;-69
2023/10/02 01:58:47;;;;;;;10.53;6.13;;;;;;;;;;5013020;28;20449;-69
2023/10/02 02:01:13;;;;;;;12.50;6.33;;;;;;;;;;5010494;28;20440;-71
2023/10/02 02:03:46;;;;;;;13.13;6.90;;;;;;;;;;5010882;28;20985;-69
2023/10/02 02:06:16;;;;;;;12.67;6.93;;;;;;;;;;4993554;28;20454;-67
2023/10/02 02:08:53;;;;;;;9.33;6.63;;;;;;;;;;5009749;28;20483;-68
2023/10/02 02:11:23;;;;;;;10.10;7.20;;;;;;;;;;5010305;28;20858;-68
2023/10/02 02:13:52;;;;;;;10.90;7.33;;;;;;;;;;5010908;28;20436;-69
2023/10/02 02:16:22;;;;;;;12.03;6.40;;;;;;;;;;5008703;28;21025;-68
2023/10/02 02:18:51;;;;;;;9.37;6.70;;;;;;;;;;5012407;28;20493;-69
2023/10/02 02:21:19;;;;;;;12.00;7.07;;;;;;;;;;4993664;28;20462;-68
2023/10/02 02:23:45;;;;;;;11.77;7.00;;;;;;;;;;5015920;28;20448;-69
2023/10/02 02:26:21;;;;;;;13.97;7.57;;;;;;;;;;4992889;28;20447;-68
2023/10/02 02:28:51;;;;;;;33.83;6.90;;;;;;;;;;5012916;28;20840;-70
2023/10/02 02:31:30;;;;;;;12.30;6.07;;;;;;;;;;5013796;28;20809;-68
2023/10/02 02:34:04;;;;;;;14.70;8.20;;;;;;;;;;5013622;28;20474;-69
2023/10/02 02:36:35;;;;;;;8.50;6.53;;;;;;;;;;5010095;28;20448;-68
2023/10/02 02:39:15;;;;;;;12.30;6.20;;;;;;;;;;5016201;28;20443;-71
2023/10/02 02:41:41;;;;;;;12.10;6.57;;;;;;;;;;5015093;28;20861;-69
2023/10/02 02:44:29;;;;;;;7.63;6.33;;;;;;;;;;5013024;28;20546;-68
2023/10/02 02:46:55;;;;;;;9.93;6.77;;;;;;;;;;5014612;28;20439;-68
2023/10/02 02:49:21;;;;;;;9.00;6.27;;;;;;;;;;4999367;28;20618;-69
2023/10/02 02:51:48;;;;;;;13.00;7.20;;;;;;;;;;5012792;28;20428;-69
2023/10/02 02:54:15;;;;;;;15.40;6.80;;;;;;;;;;5014680;28;20446;-67
2023/10/02 02:56:41;;;;;;;10.23;6.13;;;;;;;;;;5010463;28;20443;-69
2023/10/02 02:59:08;;;;;;;9.10;6.87;;;;;;;;;;5014297;28;20514;-68
2023/10/02 03:01:34;;;;;;;20.57;6.70;;;;;;;;;;5014466;28;20427;-69
2023/10/02 03:04:11;;;;;;;13.13;7.67;;;;;;;;;;4998498;28;20444;-68
2023/10/02 03:06:37;;;;;;;11.83;6.87;;;;;;;;;;5013219;28;20523;-68
2023/10/02 03:09:06;;;;;;;10.73;6.80;;;;;;;;;;4996831;28;20545;-67
2023/10/02 03:11:32;;;;;;;17.63;6.33;;;;;;;;;;5012705;28;20946;-71
2023/10/02 03:14:14;;;;;;;14.63;6.30;;;;;;;;;;5014950;28;20432;-69
2023/10/02 03:16:44;;;;;;;7.77;5.53;;;;;;;;;;5008535;28;20451;-70
2023/10/02 03:19:13;;;;;;;9.37;6.00;;;;;;;;;;5013556;28;20891;-67
2023/10/02 03:21:42;;;;;;;16.10;6.33;;;;;;;;;;5014848;28;20424;-71
2023/10/02 03:24:08;;;;;;;8.17;5.40;;;;;;;;;;5012939;28;20443;-68
2023/10/02 03:29:00;;;;;;;12.93;7.70;;;;;;;;;;5010447;28;20565;-70
2023/10/02 03:31:43;;;;;;;10.10;6.30;;;;;;;;;;5015985;28;20423;-68
2023/10/02 03:34:27;;;;;;;11.83;5.87;;;;;;;;;;4996381;28;20467;-69
2023/10/02 03:36:54;;;;;;;12.20;7.03;;;;;;;;;;4997522;28;20434;-68
2023/10/02 03:39:51;;;;;;;7.60;4.87;;;;;;;;;;5014129;28;20462;-68
2023/10/02 03:42:12;;;;;;;11.00;6.20;;;;;;;;;;5010916;28;20443;-68
2023/10/02 03:44:38;;;;;;;12.60;7.63;;;;;;;;;;5013026;28;20806;-71
2023/10/02 03:47:04;;;;;;;11.50;7.60;;;;;;;;;;5013891;28;20440;-72
2023/10/02 03:49:32;;;;;;;9.50;6.70;;;;;;;;;;5011724;28;20491;-71
2023/10/02 03:51:58;;;;;;;12.60;6.90;;;;;;;;;;4995662;28;20444;-70
2023/10/02 03:54:28;;;;;;;9.47;7.10;;;;;;;;;;5011116;28;20455;-71
2023/10/02 03:56:57;;;;;;;20.80;7.20;;;;;;;;;;5009864;28;20965;-70
2023/10/02 03:59:26;;;;;;;22.00;8.10;;;;;;;;;;5011205;28;20829;-69
2023/10/02 04:01:53;;;;;;;12.27;8.10;;;;;;;;;;5011629;28;20542;-68
2023/10/02 04:04:21;;;;;;;14.93;8.47;;;;;;;;;;5013320;28;20427;-69
2023/10/02 04:06:47;;;;;;;14.73;8.47;;;;;;;;;;5013119;28;20445;-69
2023/10/02 04:11:48;;;;;;;16.40;8.40;;;;;;;;;;5010864;28;21185;-70
2023/10/02 04:14:17;;;;;;;16.47;8.47;;;;;;;;;;4978915;28;20558;-67
2023/10/02 04:16:51;;;;;;;12.97;8.73;;;;;;;;;;5010334;28;21305;-69
2023/10/02 04:19:23;;;;;;;16.40;8.20;;;;;;;;;;5012013;28;20452;-69
2023/10/02 04:21:51;;;;;;;19.90;8.80;;;;;;;;;;5012694;28;20474;-68
2023/10/02 04:24:23;;;;;;;22.67;8.93;;;;;;;;;;5013148;28;20803;-70
2023/10/02 04:26:54;;;;;;;14.10;10.03;;;;;;;;;;5013475;28;20439;-69
2023/10/02 04:29:26;;;;;;;13.37;8.27;;;;;;;;;;5009267;28;20483;-70
2023/10/02 04:34:46;;;;;;;14.47;7.43;;;;;;;;;;5013171;28;20449;-71
2023/10/02 04:37:22;;;;;;;13.80;8.80;;;;;;;;;;5010576;28;20825;-69
2023/10/02 04:39:54;;;;;;;15.47;9.30;;;;;;;;;;5013226;28;20487;-69
2023/10/02 04:42:57;;;;;;;19.27;8.33;;;;;;;;;;5011960;28;20493;-68
2023/10/02 04:45:16;;;;;;;18.23;8.57;;;;;;;;;;5011400;28;20655;-68
2023/10/02 04:47:44;;;;;;;18.97;8.63;;;;;;;;;;5010655;28;21957;-69
2023/10/02 04:52:56;;;;;;;15.67;9.17;;;;;;;;;;5010937;28;20448;-68
2023/10/02 04:55:41;;;;;;;16.13;9.87;;;;;;;;;;5012135;28;21231;-72
2023/10/02 04:58:14;;;;;;;14.03;8.33;;;;;;;;;;5010550;28;20526;-69
2023/10/02 05:03:28;;;;;;;22.03;10.37;;;;;;;;;;5011648;28;20443;-69
2023/10/02 05:05:54;;;;;;;13.77;10.30;;;;;;;;;;5008636;28;20439;-68
2023/10/02 05:08:40;;;;;;;16.07;8.20;;;;;;;;;;5012270;28;20450;-68
2023/10/02 05:11:07;;;;;;;14.87;8.87;;;;;;;;;;5011546;28;20448;-66
2023/10/02 05:16:34;;;;;;;16.77;9.30;;;;;;;;;;5009477;28;20511;-67
2023/10/02 05:19:04;;;;;;;17.83;11.10;;;;;;;;;;5009909;28;20451;-68
2023/10/02 05:21:43;;;;;;;20.93;9.97;;;;;;;;;;5013371;28;20455;-68
2023/10/02 05:24:15;;;;;;;19.00;10.23;;;;;;;;;;5011055;28;20467;-69
2023/10/02 05:26:44;;;;;;;25.67;10.57;;;;;;;;;;5012969;28;20454;-68
2023/10/02 05:29:12;;;;;;;19.43;9.63;;;;;;;;;;5008433;28;20486;-71
2023/10/02 05:31:41;;;;;;;18.57;10.37;;;;;;;;;;4994334;28;20471;-71
2023/10/02 05:34:07;;;;;;;22.17;9.97;;;;;;;;;;5012594;28;21257;-71
2023/10/02 05:36:35;;;;;;;18.27;8.50;;;;;;;;;;5011620;28;20449;-70
2023/10/02 05:41:46;;;;;;;12.83;6.67;;;;;;;;;;5010595;28;20489;-69
2023/10/02 05:44:23;;;;;;;6.80;5.93;;;;;;;;;;4992548;28;20485;-69
2023/10/02 05:46:55;;;;;;;12.53;7.10;;;;;;;;;;5008258;28;20829;-70
2023/10/02 05:49:24;;;;;;;14.43;7.80;;;;;;;;;;5011587;28;20495;-71
2023/10/02 05:51:56;;;;;;;12.17;7.43;;;;;;;;;;5012467;28;20461;-69
2023/10/02 05:54:29;;;;;;;21.13;9.13;;;;;;;;;;4992768;28;20952;-72
2023/10/02 05:57:08;;;;;;;14.80;8.87;;;;;;;;;;4995806;28;20435;-73
2023/10/02 05:59:45;;;;;;;18.20;8.80;;;;;;;;;;5013716;28;20492;-68
2023/10/02 06:02:11;;;;;;;14.07;7.77;;;;;;;;;;5017666;28;20473;-69
2023/10/02 06:04:38;;;;;;;14.77;9.23;;;;;;;;;;4998267;28;20458;-68
2023/10/02 06:07:04;;;;;;;27.50;9.10;;;;;;;;;;5015824;28;20436;-70
2023/10/02 06:09:43;;;;;;;20.90;9.23;;;;;;;;;;5016233;28;20870;-68
2023/10/02 06:12:11;;;;;;;20.37;9.37;;;;;;;;;;5014904;28;20458;-69
2023/10/02 06:14:42;;;;;;;21.77;10.20;;;;;;;;;;5012787;28;20475;-69
2023/10/02 06:17:14;;;;;;;18.40;9.50;;;;;;;;;;5013754;28;20437;-69
2023/10/02 06:19:44;;;;;;;19.80;9.50;;;;;;;;;;5012001;28;20554;-69
2023/10/02 06:22:13;;;;;;;12.20;8.90;;;;;;;;;;5019898;28;20423;-68
2023/10/02 06:24:43;;;;;;;15.40;7.80;;;;;;;;;;5015422;28;20784;-69
2023/10/02 06:27:17;;;;;;;14.30;7.20;;;;;;;;;;5016222;28;20432;-71
2023/10/02 06:29:51;;;;;;;15.53;6.53;;;;;;;;;;5014692;28;20579;-74
2023/10/02 06:32:22;;;;;;;12.73;6.13;;;;;;;;;;5014939;28;20426;-73
2023/10/02 06:34:50;;;;;;;12.73;5.97;;;;;;;;;;5017848;28;20455;-73
2023/10/02 06:37:18;;;;;;;11.00;6.47;;;;;;;;;;5010866;28;20516;-74
2023/10/02 06:40:02;;;;;;;7.30;5.53;;;;;;;;;;5015461;28;20439;-74
2023/10/02 06:42:28;;;;;;;7.00;5.33;;;;;;;;;;5015110;28;20464;-74
2023/10/02 06:44:54;;;;;;;8.70;5.37;;;;;;;;;;5016328;28;20561;-71
2023/10/02 06:47:22;;;;;;;13.57;6.73;;;;;;;;;;5014611;28;21879;-74
2023/10/02 06:49:51;;;;;;;11.67;7.33;;;;;;;;;;5011583;28;20987;-73
2023/10/02 06:52:17;;;;;;;8.97;6.70;;;;;;;;;;5013239;28;20444;-69
2023/10/02 06:54:48;;;;;;;13.27;7.17;;;;;;;;;;5014117;28;20814;-72
2023/10/02 06:57:18;;;;;;;17.97;8.37;;;;;;;;;;5011745;28;20824;-70
2023/10/02 06:59:51;;;;;;;13.27;9.10;;;;;;;;;;5013252;28;21066;-69
2023/10/02 07:02:25;;;;;;;20.47;11.20;;;;;;;;;;5013221;28;20432;-70
2023/10/02 07:04:52;;;;;;;20.57;9.67;;;;;;;;;;5014653;28;20444;-73
2023/10/02 07:07:23;;;;;;;14.73;9.50;;;;;;;;;;5012238;28;20779;-72
2023/10/02 07:09:49;;;;;;;17.13;10.50;;;;;;;;;;5016101;28;20566;-70
2023/10/02 07:12:15;;;;;;;23.13;9.97;;;;;;;;;;4995209;28;20428;-72
2023/10/02 07:14:43;;;;;;;21.27;11.97;;;;;;;;;;5011772;28;21086;-70
2023/10/02 07:17:16;;;;;;;17.17;9.83;;;;;;;;;;5011547;28;20428;-70
2023/10/02 07:19:48;;;;;;;19.43;9.03;;;;;;;;;;5010918;28;20502;-71
2023/10/02 07:22:16;;;;;;;18.20;10.67;;;;;;;;;;5010657;28;20426;-73
2023/10/02 07:24:45;;;;;;;16.30;8.30;;;;;;;;;;5013762;28;20844;-74
2023/10/02 07:27:22;;;;;;;32.90;11.00;;;;;;;;;;5013514;28;20924;-68
2023/10/02 07:29:51;;;;;;;26.20;11.10;;;;;;;;;;5013105;28;20565;-68
2023/10/02 07:32:18;;;;;;;23.00;10.53;;;;;;;;;;5014722;28;20432;-68
2023/10/02 07:34:45;;;;;;;33.43;11.43;;;;;;;;;;4995409;28;20471;-68
2023/10/02 07:37:13;;;;;;;32.43;11.13;;;;;;;;;;5011745;28;20818;-68
2023/10/02 07:39:39;;;;;;;25.70;10.93;;;;;;;;;;5016021;28;20522;-68
2023/10/02 07:42:06;;;;;;;29.57;11.20;;;;;;;;;;5011260;28;20493;-68
2023/10/02 07:44:38;;;;;;;26.90;12.60;;;;;;;;;;5016535;28;20455;-70
2023/10/02 07:47:16;;;;;;;24.80;11.60;;;;;;;;;;5013434;28;20430;-70
2023/10/02 07:49:46;;;;;;;18.20;9.53;;;;;;;;;;5013397;28;20487;-68
2023/10/02 07:52:26;;;;;;;31.30;12.90;;;;;;;;;;5017391;28;20435;-68
2023/10/02 07:54:58;;;;;;;39.73;10.60;;;;;;;;;;4997947;28;20963;-68
2023/10/02 07:57:30;;;;;;;25.73;12.00;;;;;;;;;;5012394;28;20861;-68
2023/10/02 07:59:57;;;;;;;28.17;12.93;;;;;;;;;;4993970;28;20444;-68
2023/10/02 08:02:23;;;;;;;26.37;13.07;;;;;;;;;;5011753;28;20958;-67
2023/10/02 08:04:52;;;;;;;35.60;11.50;;;;;;;;;;5016679;28;20910;-68
2023/10/02 08:07:19;;;;;;;27.43;12.77;;;;;;;;;;5015250;28;20962;-68
2023/10/02 08:09:48;;;;;;;25.37;10.93;;;;;;;;;;5013007;28;20583;-68
2023/10/02 08:12:30;;;;;;;28.30;11.67;;;;;;;;;;5016232;28;20935;-68
2023/10/02 08:15:26;;;;;;;31.43;12.07;;;;;;;;;;4980494;28;20478;-68
2023/10/02 08:20:31;;;;;;;34.03;12.63;;;;;;;;;;5013102;28;20432;-68
2023/10/02 08:22:58;;;;;;;32.27;13.47;;;;;;;;;;5013271;28;20484;-68
2023/10/02 08:25:24;;;;;;;28.87;13.40;;;;;;;;;;5014178;28;20514;-67
2023/10/02 08:27:56;;;;;;;25.70;14.00;;;;;;;;;;5014907;28;20946;-68
2023/10/02 08:30:31;;;;;;;27.03;11.07;;;;;;;;;;5011882;28;20496;-68
2023/10/02 08:33:18;;;;;;;27.83;13.13;;;;;;;;;;4997568;28;20436;-69
2023/10/02 08:35:47;;;;;;;32.27;14.27;;;;;;;;;;5015890;28;20439;-68
2023/10/02 08:38:23;;;;;;;40.70;16.47;;;;;;;;;;5011829;28;20802;-68
2023/10/02 08:41:03;;;;;;;19.17;7.37;;;;;;;;;;5014297;28;20439;-67
2023/10/02 08:43:43;;;;;;;35.87;15.20;;;;;;;;;;5014944;28;20521;-68
2023/10/02 08:46:21;;;;;;;34.13;16.77;;;;;;;;;;4996380;28;20819;-68
2023/10/02 08:48:56;;;;;;;36.43;16.67;;;;;;;;;;4999197;28;20473;-68
2023/10/02 08:51:29;;;;;;;42.60;16.90;;;;;;;;;;5013104;28;20448;-68
2023/10/02 08:53:58;;;;;;;41.80;17.50;;;;;;;;;;5013650;28;20525;-67
2023/10/02 08:56:26;;;;;;;23.10;11.60;;;;;;;;;;5014240;28;20444;-68
2023/10/02 09:01:37;;;;;;;39.47;15.90;;;;;;;;;;5011611;28;20524;-68
2023/10/02 09:04:21;;;;;;;42.27;18.43;;;;;;;;;;5014358;28;20440;-68
2023/10/02 09:06:49;;;;;;;41.80;16.37;;;;;;;;;;5011951;28;20939;-68
2023/10/02 09:09:22;;;;;;;42.40;18.40;;;;;;;;;;5012322;28;20478;-68
2023/10/02 09:11:58;;;;;;;45.37;15.73;;;;;;;;;;5012506;28;20447;-68
2023/10/02 09:19:48;;;;;;;29.27;12.93;;;;;;;;;;5011159;28;20544;-68
2023/10/02 09:22:16;;;;;;;35.90;16.50;;;;;;;;;;5010471;28;20442;-68
2023/10/02 09:24:55;;;;;;;35.40;15.93;;;;;;;;;;4998898;28;20425;-67
2023/10/02 09:27:25;;;;;;;46.07;15.77;;;;;;;;;;5014361;28;20458;-68
2023/10/02 09:32:49;;;;;;;38.90;16.83;;;;;;;;;;5013936;28;20846;-67
2023/10/02 09:35:23;;;;;;;39.37;14.20;;;;;;;;;;4993183;28;20444;-68
2023/10/02 09:37:56;;;;;;;36.00;14.87;;;;;;;;;;5009299;28;20496;-68
2023/10/02 09:40:28;;;;;;;34.60;14.60;;;;;;;;;;5013234;28;20471;-68
2023/10/02 09:43:03;;;;;;;27.43;13.57;;;;;;;;;;5011028;28;20428;-73
2023/10/02 09:45:35;;;;;;;34.43;14.03;;;;;;;;;;5014406;28;20438;-68
2023/10/02 09:48:46;;;;;;;38.10;14.93;;;;;;;;;;5014014;28;20519;-68
2023/10/02 09:50:54;;;;;;;27.23;12.57;;;;;;;;;;5011971;28;20505;-68
2023/10/02 09:53:24;;;;;;;41.80;15.57;;;;;;;;;;4996249;28;20443;-72
2023/10/02 09:56:06;;;;;;;35.17;14.77;;;;;;;;;;5012196;28;20481;-68
2023/10/02 09:58:37;;;;;;;34.80;15.40;;;;;;;;;;5011734;28;20432;-70
2023/10/02 10:03:51;;;;;;;25.73;11.67;;;;;;;;;;5012696;28;20458;-73
2023/10/02 10:06:19;;;;;;;31.57;14.73;;;;;;;;;;4992150;28;20436;-70
2023/10/02 10:11:45;;;;;;;38.10;16.07;;;;;;;;;;5012258;28;20451;-74
2023/10/02 10:14:36;;;;;;;31.43;14.80;;;;;;;;;;5012314;28;20499;-71
2023/10/02 10:17:15;;;;;;;32.90;15.10;;;;;;;;;;5009479;28;20453;-74
2023/10/02 10:20:09;;;;;;;40.90;15.83;;;;;;;;;;5011377;28;20181;-69
2023/10/02 10:22:35;;;;;;;36.17;15.40;;;;;;;;;;5007455;28;20446;-69
2023/10/02 10:27:43;;;;;;;32.50;14.40;;;;;;;;;;5010987;28;20710;-69
2023/10/02 10:30:28;;;;;;;27.10;12.50;;;;;;;;;;5008132;28;20570;-69
2023/10/02 10:33:15;;;;;;;34.80;14.83;;;;;;;;;;4994022;28;20425;-69
2023/10/02 10:35:52;;;;;;;32.43;12.93;;;;;;;;;;5008147;28;20471;-67
2023/10/02 10:38:21;;;;;;;32.80;15.17;;;;;;;;;;5008036;28;20824;-68
2023/10/02 10:40:50;;;;;;;38.60;15.37;;;;;;;;;;5007126;28;20435;-70
2023/10/02 10:43:21;;;;;;;33.13;14.87;;;;;;;;;;5008162;28;20545;-70
2023/10/02 10:45:49;;;;;;;35.67;14.90;;;;;;;;;;5013331;28;20447;-69
2023/10/02 10:48:24;;;;;;;30.30;14.03;;;;;;;;;;5014477;28;20473;-69
2023/10/02 10:51:09;;;;;;;23.47;11.30;;;;;;;;;;5007753;28;20451;-70
2023/10/02 10:53:41;;;;;;;21.33;9.07;;;;;;;;;;5015215;28;20462;-71
2023/10/02 10:56:19;;;;;;;32.50;16.33;;;;;;;;;;4999254;28;20443;-70
2023/10/02 10:58:52;;;;;;;29.77;12.10;;;;;;;;;;5010369;28;20442;-70
2023/10/02 11:01:20;;;;;;;29.77;14.27;;;;;;;;;;5012407;28;20554;-70
2023/10/02 11:03:54;;;;;;;32.10;14.27;;;;;;;;;;5000062;28;20800;-69
2023/10/02 11:06:23;;;;;;;30.50;11.30;;;;;;;;;;5014327;28;20434;-69
2023/10/02 11:09:25;;;;;;;30.07;12.80;;;;;;;;;;5016821;28;20472;-71
2023/10/02 11:11:52;;;;;;;46.13;14.63;;;;;;;;;;4937966;29;20962;-70
2023/10/02 11:14:21;;;;;;;32.60;14.07;;;;;;;;;;4983361;28;21196;-70
2023/10/02 11:16:51;;;;;;;28.27;15.00;;;;;;;;;;5014745;28;20432;-69
2023/10/02 11:19:21;;;;;;;32.00;16.00;;;;;;;;;;5015490;28;20436;-70
2023/10/02 11:22:15;;;;;;;37.17;15.37;;;;;;;;;;5012572;28;20447;-70
2023/10/02 11:24:53;;;;;;;33.43;14.97;;;;;;;;;;5016660;28;20788;-69
2023/10/02 11:27:19;;;;;;;36.57;14.80;;;;;;;;;;4999896;28;20440;-69
2023/10/02 11:30:00;;;;;;;35.10;13.60;;;;;;;;;;5014272;28;20549;-70
2023/10/02 11:32:45;;;;;;;34.67;15.87;;;;;;;;;;5015420;28;20497;-69
2023/10/02 11:35:12;;;;;;;35.47;15.47;;;;;;;;;;5013905;28;20433;-70
2023/10/02 11:37:45;;;;;;;31.43;15.07;;;;;;;;;;5006205;28;20448;-69
2023/10/02 11:40:11;;;;;;;30.40;14.87;;;;;;;;;;5014324;28;20939;-70
2023/10/02 11:42:37;;;;;;;30.00;14.20;;;;;;;;;;5012231;28;20886;-69
2023/10/02 11:45:03;;;;;;;43.60;16.43;;;;;;;;;;5010101;28;21531;-69
2023/10/02 11:47:29;;;;;;;36.30;16.07;;;;;;;;;;5012396;28;20780;-74
2023/10/02 11:49:59;;;;;;;36.40;16.70;;;;;;;;;;5014611;28;20538;-72
2023/10/02 11:52:25;;;;;;;31.40;14.73;;;;;;;;;;5016302;28;20908;-69
2023/10/02 11:54:51;;;;;;;22.67;11.40;;;;;;;;;;5010810;28;20448;-71
2023/10/02 11:57:18;;;;;;;14.63;8.47;;;;;;;;;;5013850;28;20432;-69
2023/10/02 11:59:47;;;;;;;38.60;16.53;;;;;;;;;;5013461;28;20446;-67
2023/10/02 12:02:16;;;;;;;35.20;12.10;;;;;;;;;;5007639;28;20440;-71
2023/10/02 12:04:43;;;;;;;36.00;15.90;;;;;;;;;;5011398;28;20461;-71
2023/10/02 12:07:16;;;;;;;41.93;18.63;;;;;;;;;;5011485;28;20439;-68
2023/10/02 12:09:47;;;;;;;21.03;10.53;;;;;;;;;;5016243;28;20491;-71
2023/10/02 12:12:13;;;;;;;35.80;15.40;;;;;;;;;;5015727;28;20518;-73
2023/10/02 12:14:39;;;;;;;39.97;16.53;;;;;;;;;;5012595;28;20562;-73
2023/10/02 12:17:06;;;;;;;34.50;16.73;;;;;;;;;;5009548;28;21106;-68
2023/10/02 12:19:36;;;;;;;43.80;18.67;;;;;;;;;;5010119;28;20893;-72
2023/10/02 12:22:06;;;;;;;44.83;17.03;;;;;;;;;;5011496;28;20825;-72
2023/10/02 12:24:34;;;;;;;39.57;17.00;;;;;;;;;;5011376;28;20978;-68
2023/10/02 12:27:00;;;;;;;36.60;16.67;;;;;;;;;;5004534;28;20481;-70
2023/10/02 12:29:26;;;;;;;40.73;16.30;;;;;;;;;;5014066;28;20479;-69
2023/10/02 12:31:53;;;;;;;19.87;10.83;;;;;;;;;;5011998;28;20802;-69
2023/10/02 12:34:19;;;;;;;30.37;14.30;;;;;;;;;;5012438;28;20941;-71
2023/10/02 12:36:45;;;;;;;39.13;17.33;;;;;;;;;;5012881;28;20478;-74
2023/10/02 12:39:15;;;;;;;19.47;10.90;;;;;;;;;;5010468;28;20468;-73
2023/10/02 12:41:42;;;;;;;42.20;17.03;;;;;;;;;;5010512;28;20444;-69
2023/10/02 12:44:08;;;;;;;31.17;15.40;;;;;;;;;;4993524;28;20445;-69
2023/10/02 12:46:43;;;;;;;32.83;16.00;;;;;;;;;;5008958;28;20846;-68
2023/10/02 12:49:09;;;;;;;38.47;16.70;;;;;;;;;;5015582;28;21025;-70
2023/10/02 12:51:35;;;;;;;24.57;11.03;;;;;;;;;;5012134;28;20440;-71
2023/10/02 12:54:01;;;;;;;33.53;15.63;;;;;;;;;;5014175;28;20436;-69
2023/10/02 12:56:27;;;;;;;27.43;13.13;;;;;;;;;;5013187;28;20431;-69
2023/10/02 12:58:54;;;;;;;34.90;16.23;;;;;;;;;;5011666;28;20535;-73
2023/10/02 13:01:24;;;;;;;31.60;14.33;;;;;;;;;;5013299;28;20441;-70
2023/10/02 13:03:51;;;;;;;38.40;18.35;;;;;;;;;;5010802;28;20419;-69
2023/10/02 13:06:17;;;;;;;39.22;17.85;;;;;;;;;;5012446;28;20418;-69
2023/10/02 13:08:43;;;;;;;38.60;15.73;;;;;;;;;;5013350;28;20203;-69
2023/10/02 13:11:12;;;;;;;31.50;15.57;;;;;;;;;;5010975;28;21020;-70
2023/10/02 13:13:39;;;;;;;31.93;16.10;;;;;;;;;;5013091;28;20795;-72
2023/10/02 13:16:05;;;;;;;31.27;14.77;;;;;;;;;;5010781;28;20540;-70
2023/10/02 13:18:31;;;;;;;27.37;13.00;;;;;;;;;;5011924;28;20551;-71
2023/10/02 13:20:59;;;;;;;36.38;17.70;;;;;;;;;;5012263;28;20528;-70
2023/10/02 13:23:25;;;;;;;28.37;15.07;;;;;;;;;;5010531;28;20239;-68
2023/10/02 13:25:53;;;;;;;30.93;15.40;;;;;;;;;;5010807;28;20850;-71
2023/10/02 13:28:20;;;;;;;36.50;14.80;;;;;;;;;;5010108;28;20436;-70
2023/10/02 13:30:46;;;;;;;30.50;14.80;;;;;;;;;;4997964;28;20486;-70
2023/10/02 13:33:12;;;;;;;33.30;14.20;;;;;;;;;;5014989;28;20433;-70
2023/10/02 13:35:39;;;;;;;25.80;13.80;;;;;;;;;;5011479;28;20427;-72
2023/10/02 13:38:06;;;;;;;32.87;12.90;;;;;;;;;;5012386;28;20922;-69
2023/10/02 13:40:33;;;;;;;27.80;12.82;;;;;;;;;;5010265;28;20510;-71
2023/10/02 13:42:59;;;;;;;28.00;13.10;;;;;;;;;;4991818;28;20235;-70
2023/10/02 13:45:25;;;;;;;26.30;13.23;;;;;;;;;;5011483;28;20428;-71
2023/10/02 13:47:52;;;;;;;40.33;13.30;;;;;;;;;;4990553;28;20519;-69
2023/10/02 13:50:22;;;;;;;24.93;12.30;;;;;;;;;;5012006;28;20575;-69
2023/10/02 13:52:53;;;;;;;31.77;11.93;;;;;;;;;;5013445;28;20523;-70
2023/10/02 13:55:19;;;;;;;36.83;11.40;;;;;;;;;;5010073;28;20420;-71
2023/10/02 13:57:56;;;;;;;23.07;10.37;;;;;;;;;;5010861;28;20498;-70
2023/10/02 14:00:23;;;;;;;21.43;9.43;;;;;;;;;;5011526;28;20431;-72
2023/10/02 14:02:49;;;;;;;23.77;11.60;;;;;;;;;;4995906;28;20462;-69
2023/10/02 14:05:15;;;;;;;26.50;10.57;;;;;;;;;;5012328;28;20443;-72
2023/10/02 14:07:42;;;;;;;17.70;9.57;;;;;;;;;;5007983;28;20436;-71
2023/10/02 14:10:10;;;;;;;19.23;10.90;;;;;;;;;;5011326;28;20483;-69
2023/10/02 14:12:38;;;;;;;16.03;8.67;;;;;;;;;;5010288;28;21014;-70
2023/10/02 14:15:06;;;;;;;18.73;9.27;;;;;;;;;;5011820;28;20476;-70
2023/10/02 14:17:35;;;;;;;21.43;10.20;;;;;;;;;;5012968;28;21673;-67
2023/10/02 14:20:01;;;;;;;18.90;9.77;;;;;;;;;;5014679;28;20443;-67
2023/10/02 14:22:27;;;;;;;19.37;10.40;;;;;;;;;;5014527;28;20431;-68
2023/10/02 14:24:54;;;;;;;17.90;9.53;;;;;;;;;;5014678;28;20971;-70
2023/10/02 14:27:22;;;;;;;20.47;10.10;;;;;;;;;;5013747;28;20774;-71
2023/10/02 14:29:48;;;;;;;20.60;10.63;;;;;;;;;;5015094;28;20491;-68
2023/10/02 14:32:14;;;;;;;26.80;10.27;;;;;;;;;;5015672;28;20427;-68
2023/10/02 14:34:40;;;;;;;18.53;10.00;;;;;;;;;;5014979;28;20517;-69
2023/10/02 14:37:06;;;;;;;18.63;10.40;;;;;;;;;;5015106;28;20457;-69
2023/10/02 14:39:33;;;;;;;13.47;8.30;;;;;;;;;;5012392;28;20451;-72
2023/10/02 14:42:03;;;;;;;24.90;10.30;;;;;;;;;;5015496;28;20479;-67
2023/10/02 14:44:29;;;;;;;16.87;9.63;;;;;;;;;;5014546;28;20435;-71
2023/10/02 14:46:55;;;;;;;20.13;9.10;;;;;;;;;;5013060;28;20490;-70
2023/10/02 14:49:21;;;;;;;23.47;10.77;;;;;;;;;;5015325;28;20630;-70
2023/10/02 14:51:48;;;;;;;20.80;10.80;;;;;;;;;;5000608;28;20783;-70
2023/10/02 14:54:15;;;;;;;21.43;9.83;;;;;;;;;;5014935;28;20436;-71
2023/10/02 14:56:41;;;;;;;22.73;11.07;;;;;;;;;;5015408;28;20431;-72
2023/10/02 14:59:07;;;;;;;20.20;9.90;;;;;;;;;;5013751;28;20428;-70
2023/10/02 15:01:33;;;;;;;18.77;10.17;;;;;;;;;;5016405;28;20436;-70
2023/10/02 15:03:59;;;;;;;19.27;10.50;;;;;;;;;;5014919;28;20431;-71
2023/10/02 15:06:27;;;;;;;20.93;9.67;;;;;;;;;;5014164;28;20470;-73
2023/10/02 15:09:01;;;;;;;16.97;10.53;;;;;;;;;;5016076;28;20435;-73
2023/10/02 15:11:27;;;;;;;17.47;9.57;;;;;;;;;;5016132;28;20538;-73
2023/10/02 15:13:53;;;;;;;15.83;9.30;;;;;;;;;;5012147;28;20480;-72
2023/10/02 15:16:19;;;;;;;17.13;9.20;;;;;;;;;;5013729;28;20443;-72
2023/10/02 15:18:48;;;;;;;23.90;11.07;;;;;;;;;;5015514;28;20435;-70
2023/10/02 15:21:18;;;;;;;18.33;9.60;;;;;;;;;;5015605;28;20523;-74
2023/10/02 15:23:45;;;;;;;20.93;10.40;;;;;;;;;;4994133;28;20609;-70
2023/10/02 15:26:11;;;;;;;20.20;10.30;;;;;;;;;;5013085;28;20976;-70
2023/10/02 15:28:37;;;;;;;21.03;9.50;;;;;;;;;;5014365;28;20478;-69